Time,TemperatureF,DewpointF,PressureIn,WindDirection,WindDirectionDegrees,WindSpeedMPH,WindSpeedGustMPH,Humidity,HourlyPrecipIn,Conditions,Clouds,dailyrainin,SoftwareType,DateUTC
2014-01-20 00:11:00,27.0,7.0,30.21,SSW,203,0.0,0.0,42,0.00,,,0.00,,2014-01-20 08:11:00,
2014-01-20 01:53:00,26.0,7.0,30.21,SSW,203,0.0,0.0,44,0.00,,,0.00,,2014-01-20 09:53:00,
2014-01-20 02:52:00,25.0,7.0,30.22,SSW,203,0.0,0.0,46,0.00,,,0.00,,2014-01-20 10:52:00,
2014-01-20 03:53:00,24.0,7.0,30.21,SSW,203,0.0,0.0,48,0.00,,,0.00,,2014-01-20 11:53:00,
2014-01-20 04:52:00,24.0,8.0,30.21,SSW,203,0.0,0.0,49,0.00,,,0.00,,2014-01-20 12:52:00,
2014-01-20 05:52:00,24.0,8.0,30.23,SSW,203,0.0,0.0,49,0.00,,,0.00,,2014-01-20 13:52:00,
2014-01-20 08:42:00,32.0,14.0,30.23,SSE,159,0.0,0.0,46,0.00,,,0.00,,2014-01-20 16:42:00,
2014-01-20 08:52:00,38.0,16.0,30.26,ESE,106,0.0,3.0,41,0.00,,,0.00,,2014-01-20 16:52:00,
2014-01-20 09:42:00,54.0,17.0,30.27,NNE,15,0.0,5.0,23,0.00,,,0.00,,2014-01-20 17:42:00,
2014-01-20 16:11:00,67.0,18.0,30.23,NNE,30,1.0,7.0,15,0.00,,,0.00,,2014-01-21 00:11:00,
2014-01-20 16:21:00,64.0,17.0,30.24,NNW,331,0.0,6.0,16,0.00,,,0.00,,2014-01-21 00:21:00,
2014-01-20 16:42:00,63.0,16.0,30.24,North,5,2.0,5.0,16,0.00,,,0.00,,2014-01-21 00:42:00,
2014-01-20 16:52:00,61.0,16.0,30.24,North,355,1.0,6.0,17,0.00,,,0.00,,2014-01-21 00:52:00,
2014-01-20 17:11:00,60.0,15.0,30.24,NNE,16,2.0,6.0,17,0.00,,,0.00,,2014-01-21 01:11:00,
2014-01-20 17:42:00,58.0,15.0,30.25,North,360,1.0,4.0,18,0.00,,,0.00,,2014-01-21 01:42:00,
2014-01-20 17:52:00,57.0,14.0,30.26,NNW,336,0.0,2.0,18,0.00,,,0.00,,2014-01-21 01:52:00,
2014-01-20 18:11:00,56.0,14.0,30.26,NE,50,0.0,2.0,19,0.00,,,0.00,,2014-01-21 02:11:00,
2014-01-20 18:21:00,55.0,14.0,30.27,SSW,207,0.0,2.0,19,0.00,,,0.00,,2014-01-21 02:21:00,
2014-01-20 18:42:00,53.0,13.0,30.27,SSW,197,0.0,5.0,20,0.00,,,0.00,,2014-01-21 02:42:00,
2014-01-20 18:52:00,52.0,13.0,30.27,NE,42,0.0,4.0,21,0.00,,,0.00,,2014-01-21 02:52:00,
2014-01-20 19:11:00,51.0,12.0,30.28,SE,137,0.0,3.0,21,0.00,,,0.00,,2014-01-21 03:11:00,
2014-01-20 19:21:00,49.0,12.0,30.28,SSE,148,0.0,3.0,22,0.00,,,0.00,,2014-01-21 03:21:00,
2014-01-20 19:43:00,47.0,10.0,30.29,SSE,148,0.0,0.0,22,0.00,,,0.00,,2014-01-21 03:43:00,
2014-01-20 19:53:00,44.0,10.0,30.29,SSE,148,0.0,0.0,24,0.00,,,0.00,,2014-01-21 03:53:00,
2014-01-20 20:12:00,42.0,9.0,30.29,SSE,148,0.0,0.0,25,0.00,,,0.00,,2014-01-21 04:12:00,
2014-01-20 20:23:00,40.0,8.0,30.30,SSE,148,0.0,0.0,26,0.00,,,0.00,,2014-01-21 04:23:00,
2014-01-20 20:43:00,39.0,9.0,30.30,SSE,148,0.0,1.0,28,0.00,,,0.00,,2014-01-21 04:43:00,
2014-01-20 20:52:00,38.0,7.0,30.30,SSE,148,0.0,1.0,27,0.00,,,0.00,,2014-01-21 04:52:00,
2014-01-20 21:12:00,37.0,8.0,30.31,SSE,148,0.0,1.0,30,0.00,,,0.00,,2014-01-21 05:12:00,
2014-01-20 21:42:00,35.0,7.0,30.32,SSE,148,0.0,3.0,30,0.00,,,0.00,,2014-01-21 05:42:00,
2014-01-20 21:52:00,35.0,7.0,30.32,SE,141,0.0,1.0,31,0.00,,,0.00,,2014-01-21 05:52:00,
2014-01-20 22:12:00,34.0,7.0,30.33,SE,142,0.0,2.0,32,0.00,,,0.00,,2014-01-21 06:12:00,
2014-01-20 22:42:00,34.0,8.0,30.33,SE,142,1.0,3.0,33,0.00,,,0.00,,2014-01-21 06:42:00,
2014-01-20 22:52:00,34.0,8.0,30.33,SE,143,0.0,3.0,33,0.00,,,0.00,,2014-01-21 06:52:00,
2014-01-20 23:11:00,34.0,8.0,30.33,ESE,118,0.0,4.0,33,0.00,,,0.00,,2014-01-21 07:11:00,
2014-01-20 23:42:00,33.0,7.0,30.33,ESE,118,0.0,0.0,33,0.00,,,0.00,,2014-01-21 07:42:00,
2014-01-20 23:53:00,33.0,8.0,30.32,ESE,119,0.0,3.0,34,0.00,,,0.00,,2014-01-21 07:53:00,